Terminal Aerodrome Forecast
Issued by NWS

Home | Current Version | Previous Version | Text Only | Print | Product List | Glossary On
Versions: 1 2 3 4 5 6 7 8 9 10 11 12 13 14
000
FTUS41 KBTV 201357 AAA
TAFMSS
TAF AMD
KMSS 201357Z 2014/2112 05005KT P6SM SCT008 BKN015
      TEMPO 2014/2015 BKN008
     FM201600 05008KT P6SM SCT030
     FM210500 05004KT 2SM BR FEW250=

USA.gov is the U.S. government's official web portal to all federal, state and local government web resources and services.